Terminal Aerodrome Forecast
Issued by NWS Austin/San Antonio, TX

Home | Current Version | Previous Version | Text Only | Print | Product List | Glossary On
Versions: 1 2 3 4 5 6 7 8 9 10 11 12 13 14 15 16 17 18 19 20 21
000
FTUS44 KEWX 310500
TAFSAT
TAF
KSAT 310520Z 3106/0112 07006KT P6SM OVC027
     FM311200 12009KT 3SM BR OVC008
     FM311700 13008KT 2SM -RA BR OVC007
     FM010200 15011KT 1SM -DZ OVC004=

USA.gov is the U.S. government's official web portal to all federal, state and local government web resources and services.